Jessup, Maryland
Current Conditions -  °F | °C
As of 8:12 AM on Wednesday 22 Oct 2014 (Local Time) from KFME Reporting Station
Broken Clouds Broken Clouds  
Wind Chill: 52°   Ceiling: 2400
Heat Index: 52°   Visibility: 1.7mi
Dew Point: 50°   Wind: 7mph
Humidity: 94%   Direction: 340°NNW
Pressure: 29.92"   Gusts: NA
Location:  39.16°N, 76.8°W
Report Text: KFME 221212Z AUTO 34006KT 1 3/4SM SCT010 BKN024 BKN034 11/10 A2992 RMK AO1 VIS 1V5
Loading
Personal Weather Stations






























Interactive Weather Map
Tropical Storm Tracking
New forecast layout! Learn more

10-Day Weather Forecast

Advertisements
Track Severe Weather on mobile